Time;durP1;ratioP1;P1;durP2;ratioP2;P2;SDS_P1;SDS_P2;PMS_P1;PMS_P2;Temp;Humidity;BMP_temperature;BMP_pressure;BME280_temperature;BME280_humidity;BME280_pressure;Samples;Min_cycle;Max_cycle;Signal;HPM_P1;HPM_P2
2022/10/10 03:47:27;;;;;;;;;;;;;;;17.35;75.43;97068.91;4246080;27;10309;-69
2022/10/10 03:49:30;;;;;;;;;;;;;;;17.63;74.81;97070.91;4226717;28;5695;-69
2022/10/10 03:51:32;;;;;;;;;;;;;;;17.86;74.39;97069.31;4225950;27;5842;-69
2022/10/10 03:53:36;;;;;;;;;;;;;;;18.04;73.81;97071.91;4231416;27;5790;-69
2022/10/10 03:55:39;;;;;;;;;;;;;;;18.18;73.54;97062.56;4228021;28;5684;-69
2022/10/10 03:57:42;;;;;;;;;;;;;;;18.30;73.27;97066.03;4229033;28;5805;-69
2022/10/10 03:59:45;;;;;;;;;;;;;;;18.40;73.04;97068.13;4228190;27;6576;-69
2022/10/10 04:01:48;;;;;;;;;;;;;;;18.46;72.68;97061.00;4231210;28;6487;-69
2022/10/10 04:03:52;;;;;;;;;;;;;;;18.53;72.60;97059.81;4230918;28;5821;-69
2022/10/10 04:05:55;;;;;;;;;;;;;;;18.57;72.38;97069.03;4231168;28;5741;-69
2022/10/10 04:07:58;;;;;;;;;;;;;;;18.60;72.34;97068.53;4231042;28;5683;-69
2022/10/10 04:10:01;;;;;;;;;;;;;;;18.62;72.12;97065.63;4231396;28;5854;-69
2022/10/10 04:12:04;;;;;;;;;;;;;;;18.65;71.84;97072.41;4239244;27;5733;-69
2022/10/10 04:14:07;;;;;;;;;;;;;;;18.67;71.91;97070.28;4231371;28;5677;-68
2022/10/10 04:16:10;;;;;;;;;;;;;;;18.70;71.65;97069.84;4231516;28;5667;-70
2022/10/10 04:18:12;;;;;;;;;;;;;;;18.72;71.65;97063.19;4231027;28;5738;-70
2022/10/10 04:20:17;;;;;;;;;;;;;;;18.72;71.63;97068.53;4231022;28;5678;-71
2022/10/10 04:22:20;;;;;;;;;;;;;;;18.72;71.56;97057.84;4230895;28;5846;-68
2022/10/10 04:24:23;;;;;;;;;;;;;;;18.73;71.36;97048.75;4230946;28;5702;-69
2022/10/10 04:26:26;;;;;;;;;;;;;;;18.76;71.19;97055.47;4231020;28;5762;-69
2022/10/10 04:28:29;;;;;;;;;;;;;;;18.79;71.23;97055.00;4239558;27;5674;-70
2022/10/10 04:30:34;;;;;;;;;;;;;;;18.81;71.00;97051.06;4230791;28;5838;-70
2022/10/10 04:32:37;;;;;;;;;;;;;;;18.83;70.64;97048.13;4230629;28;5782;-69
2022/10/10 04:34:40;;;;;;;;;;;;;;;18.83;70.84;97056.16;4231042;28;5834;-70
2022/10/10 04:36:44;;;;;;;;;;;;;;;18.84;70.71;97055.09;4230555;28;5777;-70
2022/10/10 04:38:47;;;;;;;;;;;;;;;18.85;70.46;97054.06;4230957;28;5683;-70
2022/10/10 04:40:50;;;;;;;;;;;;;;;18.84;70.50;97061.28;4231014;28;5690;-68
2022/10/10 04:42:54;;;;;;;;;;;;;;;18.82;70.24;97059.91;4228931;28;5693;-70
2022/10/10 04:44:57;;;;;;;;;;;;;;;18.81;70.16;97060.94;4229548;28;5698;-69
2022/10/10 04:47:01;;;;;;;;;;;;;;;18.78;70.45;97064.91;4224343;28;5671;-69
2022/10/10 04:49:04;;;;;;;;;;;;;;;18.76;70.09;97058.16;4218003;28;5133;-68
2022/10/10 04:51:07;;;;;;;;;;;;;;;18.76;70.19;97058.16;4217321;28;5908;-69
2022/10/10 04:53:11;;;;;;;;;;;;;;;18.74;70.03;97060.25;4218059;28;5758;-69
2022/10/10 04:55:14;;;;;;;;;;;;;;;18.75;70.02;97059.22;4218550;28;5766;-69
2022/10/10 04:57:17;;;;;;;;;;;;;;;18.74;70.10;97053.03;4248479;27;5761;-69
2022/10/10 04:59:20;;;;;;;;;;;;;;;18.74;69.92;97060.25;4210472;28;5857;-69
2022/10/10 05:01:23;;;;;;;;;;;;;;;18.74;70.02;97060.25;4216900;28;5711;-70
2022/10/10 05:03:26;;;;;;;;;;;;;;;18.72;69.82;97065.88;4214092;28;5780;-69
2022/10/10 05:05:29;;;;;;;;;;;;;;;18.71;69.76;97066.91;4218729;28;5658;-69
2022/10/10 05:07:32;;;;;;;;;;;;;;;18.71;69.80;97072.28;4216773;28;5715;-69
2022/10/10 05:09:36;;;;;;;;;;;;;;;18.70;69.95;97059.13;4216021;28;5678;-69
2022/10/10 05:11:39;;;;;;;;;;;;;;;18.71;69.42;97066.91;4211787;28;5885;-69
2022/10/10 05:13:42;;;;;;;;;;;;;;;18.70;69.56;97059.13;4213089;28;5762;-69
2022/10/10 05:15:45;;;;;;;;;;;;;;;18.71;69.43;97058.06;4214038;28;5671;-69
2022/10/10 05:17:47;;;;;;;;;;;;;;;18.70;69.65;97067.97;4213344;28;5682;-69
2022/10/10 05:19:51;;;;;;;;;;;;;;;18.71;69.51;97068.78;4211119;28;5806;-69
2022/10/10 05:21:54;;;;;;;;;;;;;;;18.71;69.49;97058.06;4215870;28;5747;-69
2022/10/10 05:23:57;;;;;;;;;;;;;;;18.72;69.31;97059.69;4215700;28;5671;-69
2022/10/10 05:26:01;;;;;;;;;;;;;;;18.74;69.28;97065.63;4216967;28;5675;-70
2022/10/10 05:28:04;;;;;;;;;;;;;;;18.74;69.26;97062.94;4216540;28;5663;-69
2022/10/10 05:30:07;;;;;;;;;;;;;;;18.74;69.10;97066.44;4219435;28;5663;-69
2022/10/10 05:32:10;;;;;;;;;;;;;;;18.76;68.91;97063.50;4215989;28;5683;-67
2022/10/10 05:34:14;;;;;;;;;;;;;;;18.75;68.96;97068.06;4213633;28;5807;-69
2022/10/10 05:36:17;;;;;;;;;;;;;;;18.76;68.99;97063.50;4214698;28;5667;-69
2022/10/10 05:38:20;;;;;;;;;;;;;;;18.76;68.99;97064.31;4213229;28;5682;-69
2022/10/10 05:40:23;;;;;;;;;;;;;;;18.77;68.74;97075.84;4213982;28;5802;-69
2022/10/10 05:42:27;;;;;;;;;;;;;;;18.71;68.63;97061.56;4217774;28;6389;-69
2022/10/10 05:44:30;;;;;;;;;;;;;;;18.75;68.84;97077.97;4219156;28;5682;-69
2022/10/10 05:46:33;;;;;;;;;;;;;;;18.75;68.80;97080.63;4218709;28;5736;-68
2022/10/10 05:48:36;;;;;;;;;;;;;;;18.72;68.52;97079.25;4218934;28;6180;-69
2022/10/10 05:50:45;;;;;;;;;;;;;;;18.74;68.55;97081.69;4218937;28;5766;-70
2022/10/10 05:52:48;;;;;;;;;;;;;;;18.73;68.56;97085.41;4218490;28;5652;-69
2022/10/10 05:54:52;;;;;;;;;;;;;;;18.72;68.49;97084.59;4218697;28;5687;-70
2022/10/10 05:56:55;;;;;;;;;;;;;;;18.74;68.31;97087.03;4218747;28;5074;-68
2022/10/10 05:58:59;;;;;;;;;;;;;;;18.73;68.26;97086.22;4217551;28;5671;-69
2022/10/10 06:01:04;;;;;;;;;;;;;;;18.74;68.28;97087.03;4219050;28;5799;-69
2022/10/10 06:03:11;;;;;;;;;;;;;;;18.74;68.15;97087.84;4217276;28;5664;-70
2022/10/10 06:05:14;;;;;;;;;;;;;;;18.75;67.94;97083.31;4208419;28;5651;-66
2022/10/10 06:07:17;;;;;;;;;;;;;;;18.75;68.26;97083.31;4216620;28;5671;-66
2022/10/10 06:09:20;;;;;;;;;;;;;;;18.71;68.29;97076.81;4217671;28;5667;-66
2022/10/10 06:11:24;;;;;;;;;;;;;;;18.77;68.00;97086.56;4216536;28;5727;-67
2022/10/10 06:13:27;;;;;;;;;;;;;;;18.78;68.04;97090.88;4217752;28;5769;-67
2022/10/10 06:15:31;;;;;;;;;;;;;;;18.79;68.14;97089.81;4218279;28;5659;-67
2022/10/10 06:17:34;;;;;;;;;;;;;;;18.80;67.86;97089.59;4218280;28;5696;-67
2022/10/10 06:19:37;;;;;;;;;;;;;;;18.81;67.77;97098.44;4217522;28;5679;-67
2022/10/10 06:21:40;;;;;;;;;;;;;;;18.82;67.67;97102.75;4217329;28;5738;-67
2022/10/10 06:23:43;;;;;;;;;;;;;;;18.81;67.77;97098.44;4218469;28;5678;-67
2022/10/10 06:25:47;;;;;;;;;;;;;;;18.80;67.76;97102.16;4218385;28;5675;-66
2022/10/10 06:27:49;;;;;;;;;;;;;;;18.77;67.72;97098.09;4216345;28;5725;-66
2022/10/10 06:29:54;;;;;;;;;;;;;;;18.77;67.74;97098.09;4211154;28;6361;-66
2022/10/10 06:31:58;;;;;;;;;;;;;;;18.78;67.39;97105.06;4213159;28;5773;-67
2022/10/10 06:34:01;;;;;;;;;;;;;;;18.80;67.37;97102.16;4215180;28;5849;-67
2022/10/10 06:36:05;;;;;;;;;;;;;;;18.81;67.27;97103.81;4216811;28;5738;-67
2022/10/10 06:38:08;;;;;;;;;;;;;;;18.83;67.22;97109.72;4217231;28;5659;-67
2022/10/10 06:40:11;;;;;;;;;;;;;;;18.84;67.31;97111.34;4217683;28;5806;-67
2022/10/10 06:42:14;;;;;;;;;;;;;;;18.84;67.51;97108.69;4215210;28;5687;-67
2022/10/10 06:44:18;;;;;;;;;;;;;;;18.85;67.36;97116.47;4217516;28;5725;-68
2022/10/10 06:46:21;;;;;;;;;;;;;;;18.86;67.35;97119.97;4216529;28;5599;-67
2022/10/10 06:48:25;;;;;;;;;;;;;;;18.86;67.19;97115.41;4216906;28;7714;-67
2022/10/10 06:50:28;;;;;;;;;;;;;;;18.87;67.16;97117.03;4217017;28;5690;-67
2022/10/10 06:52:31;;;;;;;;;;;;;;;18.90;67.22;97121.91;4216797;28;5683;-67
2022/10/10 06:54:35;;;;;;;;;;;;;;;18.94;66.97;97124.94;4217758;28;5761;-67
2022/10/10 06:56:42;;;;;;;;;;;;;;;18.96;67.00;97128.19;4216856;28;5663;-66
2022/10/10 06:58:45;;;;;;;;;;;;;;;18.99;66.84;97132.25;4212301;28;5659;-65
2022/10/10 07:00:49;;;;;;;;;;;;;;;19.00;67.10;97134.69;4211076;28;5833;-67
2022/10/10 07:02:52;;;;;;;;;;;;;;;19.02;66.92;97139.81;4215710;28;5671;-68
2022/10/10 07:04:57;;;;;;;;;;;;;;;19.03;66.78;97144.16;4216744;28;6001;-68
2022/10/10 07:07:02;;;;;;;;;;;;;;;19.07;66.97;97142.63;4216925;28;7725;-68
2022/10/10 07:09:05;;;;;;;;;;;;;;;19.10;66.53;97150.97;4217501;28;5622;-67
2022/10/10 07:11:09;;;;;;;;;;;;;;;19.11;66.46;97146.44;4217153;28;6234;-66
2022/10/10 07:13:12;;;;;;;;;;;;;;;19.12;66.57;97158.78;4215796;28;5672;-67
2022/10/10 07:15:15;;;;;;;;;;;;;;;19.12;66.78;97156.09;4215919;28;5763;-67
2022/10/10 07:17:19;;;;;;;;;;;;;;;19.15;66.49;97161.81;4216346;28;5679;-67
2022/10/10 07:19:23;;;;;;;;;;;;;;;19.16;66.64;97160.75;4216112;28;5769;-67
2022/10/10 07:21:28;;;;;;;;;;;;;;;19.18;66.49;97161.34;4213185;28;6654;-66
2022/10/10 07:23:31;;;;;;;;;;;;;;;19.20;66.63;97167.25;4216350;28;5848;-66
2022/10/10 07:25:37;;;;;;;;;;;;;;;19.21;66.57;97170.75;4216731;28;5774;-66
2022/10/10 07:27:40;;;;;;;;;;;;;;;19.23;66.78;97170.50;4216843;28;5667;-66
2022/10/10 07:29:43;;;;;;;;;;;;;;;19.25;66.71;97165.72;4216558;28;5758;-67
2022/10/10 07:31:47;;;;;;;;;;;;;;;19.26;66.46;97167.38;4210088;28;7168;-67
2022/10/10 07:33:50;;;;;;;;;;;;;;;19.28;66.33;97166.06;4215467;28;5687;-67
2022/10/10 07:35:54;;;;;;;;;;;;;;;19.29;66.41;97174.94;4212765;28;5778;-66
2022/10/10 07:37:58;;;;;;;;;;;;;;;19.30;66.14;97176.56;4215547;28;5667;-66
2022/10/10 07:40:01;;;;;;;;;;;;;;;19.30;66.16;97179.22;4216002;28;5667;-66
2022/10/10 07:42:04;;;;;;;;;;;;;;;19.30;66.20;97182.72;4215788;28;6405;-67
2022/10/10 07:44:07;;;;;;;;;;;;;;;19.30;66.14;97173.88;4215589;28;5667;-68
2022/10/10 07:46:15;;;;;;;;;;;;;;;19.32;66.05;97182.47;4215386;28;5678;-67
2022/10/10 07:48:18;;;;;;;;;;;;;;;19.29;66.11;97177.59;4213498;28;5708;-67
2022/10/10 07:50:23;;;;;;;;;;;;;;;19.27;66.04;97175.16;4211292;27;5696;-67
2022/10/10 07:52:27;;;;;;;;;;;;;;;19.28;66.27;97179.47;4216115;28;6531;-66
2022/10/10 07:54:32;;;;;;;;;;;;;;;19.31;65.99;97178.19;4216676;28;5859;-66
2022/10/10 07:56:35;;;;;;;;;;;;;;;19.31;66.14;97178.19;4216076;28;5746;-66
2022/10/10 07:58:39;;;;;;;;;;;;;;;19.32;66.19;97182.47;4216625;28;5660;-66
2022/10/10 08:00:41;;;;;;;;;;;;;;;19.34;65.90;97191.09;4217061;28;5943;-66
2022/10/10 08:02:45;;;;;;;;;;;;;;;19.35;65.81;97190.03;4216072;28;5817;-67
2022/10/10 08:04:48;;;;;;;;;;;;;;;19.36;65.98;97191.66;4214739;28;5656;-65
2022/10/10 08:06:51;;;;;;;;;;;;;;;19.36;66.10;97191.66;4215085;28;5642;-66
2022/10/10 08:08:54;;;;;;;;;;;;;;;19.36;65.81;97188.97;4216061;28;5664;-66
2022/10/10 08:10:58;;;;;;;;;;;;;;;19.36;65.75;97183.63;4216325;28;6340;-66
2022/10/10 08:13:01;;;;;;;;;;;;;;;19.36;65.84;97186.31;4214587;28;5667;-66
2022/10/10 08:15:06;;;;;;;;;;;;;;;19.40;65.84;97190.16;4215398;28;6405;-66
2022/10/10 08:17:10;;;;;;;;;;;;;;;19.42;65.57;97191.53;4204773;28;5786;-67
2022/10/10 08:19:13;;;;;;;;;;;;;;;19.44;65.74;97193.97;4216543;28;5674;-68
2022/10/10 08:21:16;;;;;;;;;;;;;;;19.46;65.46;97192.66;4215841;28;5826;-68
2022/10/10 08:23:19;;;;;;;;;;;;;;;19.48;65.56;97184.41;4209685;28;5766;-67
2022/10/10 08:25:26;;;;;;;;;;;;;;;19.52;65.58;97187.41;4218331;28;5670;-67
2022/10/10 08:27:31;;;;;;;;;;;;;;;19.52;65.68;97185.56;4218627;28;6365;-68
2022/10/10 08:29:34;;;;;;;;;;;;;;;19.54;65.32;97185.31;4217716;28;5653;-67
2022/10/10 08:31:36;;;;;;;;;;;;;;;19.53;65.17;97187.19;4214026;28;5675;-68
2022/10/10 08:33:44;;;;;;;;;;;;;;;19.53;65.49;97192.53;4218420;28;5758;-67
2022/10/10 08:35:47;;;;;;;;;;;;;;;19.51;65.35;97189.28;4218250;28;5671;-67
2022/10/10 08:37:50;;;;;;;;;;;;;;;19.45;65.24;97195.59;4218417;28;5660;-67
2022/10/10 08:39:53;;;;;;;;;;;;;;;19.44;65.23;97191.28;4219581;28;5663;-67
2022/10/10 08:41:58;;;;;;;;;;;;;;;19.47;65.48;97180.06;4218767;28;5757;-67
2022/10/10 08:44:13;;;;;;;;;;;;;;;19.48;65.05;97197.81;4218307;28;5688;-68
2022/10/10 08:46:21;;;;;;;;;;;;;;;19.50;65.01;97198.38;4211888;28;5682;-68
2022/10/10 08:48:28;;;;;;;;;;;;;;;19.49;65.17;97196.75;4218325;28;5668;-68
2022/10/10 08:50:35;;;;;;;;;;;;;;;19.46;65.15;97198.03;4219463;28;5845;-68
2022/10/10 08:52:43;;;;;;;;;;;;;;;19.48;65.14;97189.78;4218924;28;5679;-68
2022/10/10 08:54:48;;;;;;;;;;;;;;;19.49;64.74;97196.75;4219045;28;5786;-69
2022/10/10 08:56:52;;;;;;;;;;;;;;;19.48;64.79;97185.22;4216397;28;5743;-68
2022/10/10 08:59:00;;;;;;;;;;;;;;;19.49;64.96;97191.41;4216869;28;5732;-69
2022/10/10 09:01:11;;;;;;;;;;;;;;;19.49;64.77;97183.34;4216174;28;5818;-68
2022/10/10 09:03:24;;;;;;;;;;;;;;;19.51;64.77;97188.47;4218700;28;5683;-67
2022/10/10 09:05:46;;;;;;;;;;;;;;;19.50;64.84;97198.38;4217718;28;5728;-68
2022/10/10 09:08:12;;;;;;;;;;;;;;;19.50;64.74;97187.66;4216406;28;5762;-68
2022/10/10 09:10:23;;;;;;;;;;;;;;;19.52;64.42;97201.66;4218569;28;5703;-67
2022/10/10 09:12:33;;;;;;;;;;;;;;;19.55;64.38;97195.81;4215228;28;7198;-68
2022/10/10 09:14:46;;;;;;;;;;;;;;;19.57;64.45;97199.06;4206488;28;5773;-68
2022/10/10 09:16:55;;;;;;;;;;;;;;;19.57;64.51;97204.44;4218669;28;5834;-68
2022/10/10 09:19:06;;;;;;;;;;;;;;;19.56;64.40;97197.44;4217820;28;5660;-68
2022/10/10 09:21:15;;;;;;;;;;;;;;;19.58;64.12;97198.00;4218329;28;5765;-68
2022/10/10 09:23:22;;;;;;;;;;;;;;;19.59;64.06;97209.56;4217828;28;5807;-68
2022/10/10 09:25:29;;;;;;;;;;;;;;;19.60;64.04;97208.53;4216859;28;5695;-68
2022/10/10 09:27:37;;;;;;;;;;;;;;;19.61;64.30;97215.50;4216662;28;6360;-67
2022/10/10 09:29:46;;;;;;;;;;;;;;;19.61;64.25;97194.06;4218164;28;5763;-67
2022/10/10 09:31:55;;;;;;;;;;;;;;;19.59;63.87;97202.31;4215763;28;5692;-67
2022/10/10 09:34:03;;;;;;;;;;;;;;;19.57;63.90;97212.47;4217816;28;5695;-68
2022/10/10 09:36:13;;;;;;;;;;;;;;;19.54;63.78;97215.63;4216214;28;5073;-68
2022/10/10 09:38:30;;;;;;;;;;;;;;;19.54;63.88;97210.25;4217882;28;5675;-66
2022/10/10 09:40:36;;;;;;;;;;;;;;;19.55;64.00;97219.97;4214501;28;5803;-67
2022/10/10 09:42:40;;;;;;;;;;;;;;;19.54;63.64;97209.44;4218017;28;5888;-67
2022/10/10 09:44:43;;;;;;;;;;;;;;;19.54;63.59;97212.94;4218169;28;5822;-68
2022/10/10 09:46:46;;;;;;;;;;;;;;;19.54;63.96;97210.25;4217740;28;5822;-67
2022/10/10 09:48:53;;;;;;;;;;;;;;;19.56;63.85;97207.34;4217397;28;5671;-67
2022/10/10 09:50:56;;;;;;;;;;;;;;;19.57;63.94;97198.25;4218453;28;5671;-67
2022/10/10 09:52:59;;;;;;;;;;;;;;;19.58;63.78;97207.94;4217343;28;5755;-68
2022/10/10 09:55:14;;;;;;;;;;;;;;;19.56;63.80;97210.84;4218104;28;5747;-67
2022/10/10 09:57:26;;;;;;;;;;;;;;;19.56;63.53;97202.81;4217659;28;6981;-67
2022/10/10 09:59:37;;;;;;;;;;;;;;;19.58;63.64;97194.53;4217843;28;5663;-68
2022/10/10 10:01:40;;;;;;;;;;;;;;;19.60;63.44;97201.28;4216901;28;5845;-67
2022/10/10 10:03:43;;;;;;;;;;;;;;;19.61;63.18;97205.59;4217104;28;5869;-69
2022/10/10 10:05:57;;;;;;;;;;;;;;;19.62;63.56;97204.53;4217671;28;5667;-68
2022/10/10 10:08:00;;;;;;;;;;;;;;;19.66;63.46;97202.19;4216631;28;5790;-67
2022/10/10 10:10:17;;;;;;;;;;;;;;;19.68;63.16;97200.88;4216958;28;5777;-69
2022/10/10 10:12:23;;;;;;;;;;;;;;;19.68;63.47;97198.19;4216287;28;5671;-69
2022/10/10 10:14:29;;;;;;;;;;;;;;;19.70;63.63;97204.13;4216166;28;5679;-67
2022/10/10 10:16:34;;;;;;;;;;;;;;;19.71;63.06;97194.25;4217667;28;5745;-67
2022/10/10 10:18:39;;;;;;;;;;;;;;;19.73;63.21;97202.84;4218251;28;5656;-67
2022/10/10 10:20:44;;;;;;;;;;;;;;;19.76;63.25;97197.81;4217976;28;5707;-68
2022/10/10 10:22:48;;;;;;;;;;;;;;;19.78;63.09;97201.06;4215216;28;5790;-68
2022/10/10 10:24:51;;;;;;;;;;;;;;;19.78;63.24;97198.38;4217273;28;5827;-68
2022/10/10 10:26:55;;;;;;;;;;;;;;;19.80;63.29;97194.66;4217575;28;5660;-67
2022/10/10 10:28:58;;;;;;;;;;;;;;;19.82;63.14;97201.41;4218257;28;5683;-68
2022/10/10 10:31:01;;;;;;;;;;;;;;;19.81;62.88;97201.63;4217592;28;5656;-68
2022/10/10 10:33:14;;;;;;;;;;;;;;;19.79;62.74;97196.50;4217378;28;5770;-67
2022/10/10 10:35:28;;;;;;;;;;;;;;;19.81;62.89;97197.06;4220723;28;5684;-67
2022/10/10 10:37:43;;;;;;;;;;;;;;;19.82;63.20;97195.22;4211779;28;5668;-68
2022/10/10 10:40:03;;;;;;;;;;;;;;;19.83;63.00;97199.56;4217592;28;5667;-68
2022/10/10 10:42:19;;;;;;;;;;;;;;;19.84;63.11;97199.31;4216709;28;5656;-74
2022/10/10 10:44:33;;;;;;;;;;;;;;;19.84;62.85;97196.63;4218358;28;5664;-72
2022/10/10 10:46:52;;;;;;;;;;;;;;;19.82;62.82;97203.25;4216921;28;5655;-70
2022/10/10 10:49:01;;;;;;;;;;;;;;;19.78;62.91;97198.38;4214406;28;6488;-70
2022/10/10 10:51:18;;;;;;;;;;;;;;;19.82;62.87;97203.25;4215691;28;5860;-68
2022/10/10 10:53:30;;;;;;;;;;;;;;;19.82;62.82;97203.25;4223197;28;5739;-69
2022/10/10 10:55:41;;;;;;;;;;;;;;;19.84;62.87;97193.94;4212728;28;5681;-68
2022/10/10 10:57:59;;;;;;;;;;;;;;;19.85;62.90;97198.25;4213296;28;5683;-68
2022/10/10 11:00:23;;;;;;;;;;;;;;;19.88;62.48;97200.44;4217672;28;5734;-68
2022/10/10 11:03:02;;;;;;;;;;;;;;;19.91;62.43;97201.81;4212033;28;5696;-69
2022/10/10 11:05:38;;;;;;;;;;;;;;;19.92;62.60;97201.56;4213284;28;5715;-69
2022/10/10 11:07:54;;;;;;;;;;;;;;;19.94;62.19;97199.47;4216995;28;5220;-68
2022/10/10 11:10:03;;;;;;;;;;;;;;;19.95;62.16;97194.94;4216696;28;5663;-68
2022/10/10 11:12:19;;;;;;;;;;;;;;;19.97;62.06;97198.19;4216772;28;5784;-68
2022/10/10 11:14:28;;;;;;;;;;;;;;;19.99;62.33;97194.19;4217135;28;5655;-68
2022/10/10 11:16:37;;;;;;;;;;;;;;;20.01;62.36;97194.75;4217066;28;5850;-68
2022/10/10 11:19:08;;;;;;;;;;;;;;;20.03;62.01;97198.00;4212017;28;5659;-69
2022/10/10 11:21:17;;;;;;;;;;;;;;;20.07;62.27;97198.34;4214841;28;5671;-69
2022/10/10 11:23:28;;;;;;;;;;;;;;;20.10;61.80;97202.41;4210636;28;5695;-70
2022/10/10 11:25:36;;;;;;;;;;;;;;;20.11;61.93;97191.41;4217112;28;5715;-68
2022/10/10 11:27:45;;;;;;;;;;;;;;;20.13;61.75;97192.00;4216886;28;5671;-69
2022/10/10 11:29:57;;;;;;;;;;;;;;;20.16;61.70;97196.88;4216986;28;6361;-68
2022/10/10 11:32:07;;;;;;;;;;;;;;;20.17;61.94;97195.81;4216126;28;5695;-68
2022/10/10 11:34:19;;;;;;;;;;;;;;;20.18;62.06;97194.78;4215490;28;5746;-68
2022/10/10 11:36:25;;;;;;;;;;;;;;;20.16;61.68;97180.78;4216414;28;5675;-68
2022/10/10 11:38:33;;;;;;;;;;;;;;;20.17;61.82;97192.34;4215748;28;5701;-69
2022/10/10 11:40:45;;;;;;;;;;;;;;;20.18;61.66;97181.34;4216566;28;5833;-69
2022/10/10 11:42:56;;;;;;;;;;;;;;;20.18;61.67;97178.66;4215618;28;5616;-69
2022/10/10 11:45:02;;;;;;;;;;;;;;;20.19;61.86;97185.66;4217084;28;6361;-69
2022/10/10 11:47:13;;;;;;;;;;;;;;;20.20;61.85;97173.84;4214979;28;5696;-68
2022/10/10 11:49:22;;;;;;;;;;;;;;;20.21;61.60;97174.66;4216765;28;5674;-67
2022/10/10 11:52:00;;;;;;;;;;;;;;;20.22;61.97;97166.38;4210806;28;5761;-68
2022/10/10 11:54:29;;;;;;;;;;;;;;;20.22;61.39;97173.59;4214164;28;5708;-69
2022/10/10 11:56:37;;;;;;;;;;;;;;;20.22;61.74;97171.75;4214563;28;5678;-69
2022/10/10 11:58:44;;;;;;;;;;;;;;;20.24;61.45;97172.28;4218536;28;5826;-68
2022/10/10 12:00:52;;;;;;;;;;;;;;;20.25;61.70;97173.09;4244219;27;5601;-68
2022/10/10 12:02:57;;;;;;;;;;;;;;;20.25;61.75;97173.09;4214764;28;5754;-68
2022/10/10 12:05:01;;;;;;;;;;;;;;;20.26;61.73;97164.81;4214354;28;5668;-68
2022/10/10 12:07:06;;;;;;;;;;;;;;;20.26;61.40;97167.50;4219682;28;5675;-68
2022/10/10 12:09:14;;;;;;;;;;;;;;;20.26;61.37;97170.19;4218369;28;7757;-68
2022/10/10 12:11:21;;;;;;;;;;;;;;;20.28;61.26;97168.09;4217921;28;5754;-68
2022/10/10 12:13:28;;;;;;;;;;;;;;;20.31;61.58;97172.16;4217704;28;5225;-69
2022/10/10 12:15:35;;;;;;;;;;;;;;;20.32;61.49;97168.41;4218895;28;5761;-69
2022/10/10 12:17:47;;;;;;;;;;;;;;;20.33;61.16;97173.50;4221486;28;5699;-68
2022/10/10 12:19:51;;;;;;;;;;;;;;;20.34;61.15;97166.28;4219924;28;5738;-70
2022/10/10 12:22:03;;;;;;;;;;;;;;;20.34;61.14;97167.09;4219107;28;5683;-69
2022/10/10 12:24:11;;;;;;;;;;;;;;;20.36;61.08;97159.59;4215036;28;5684;-68
2022/10/10 12:26:16;;;;;;;;;;;;;;;20.38;61.00;97158.53;4218983;28;5660;-68
2022/10/10 12:28:25;;;;;;;;;;;;;;;20.42;61.01;97159.69;4214944;28;5663;-68
2022/10/10 12:30:28;;;;;;;;;;;;;;;20.42;61.30;97157.00;4212703;28;5845;-68
2022/10/10 12:32:42;;;;;;;;;;;;;;;20.41;60.74;97148.13;4217892;28;5682;-69
2022/10/10 12:34:57;;;;;;;;;;;;;;;20.43;60.89;97150.59;4220656;28;5676;-68
2022/10/10 12:37:21;;;;;;;;;;;;;;;20.44;61.17;97146.84;4209581;28;5735;-68
2022/10/10 12:39:34;;;;;;;;;;;;;;;20.45;61.14;97146.59;4210260;28;5712;-69
2022/10/10 12:41:56;;;;;;;;;;;;;;;20.47;60.79;97143.66;4218660;28;6670;-68
2022/10/10 12:44:21;;;;;;;;;;;;;;;20.48;60.89;97138.03;4219245;28;5679;-69
2022/10/10 12:46:29;;;;;;;;;;;;;;;20.50;61.00;97135.94;4208459;28;5101;-68
2022/10/10 12:48:33;;;;;;;;;;;;;;;20.52;60.73;97133.00;4216936;28;5663;-67
2022/10/10 12:50:38;;;;;;;;;;;;;;;20.52;60.42;97136.50;4219778;28;5806;-73
2022/10/10 12:52:48;;;;;;;;;;;;;;;20.53;60.69;97140.81;4217503;28;5720;-72
2022/10/10 12:54:54;;;;;;;;;;;;;;;20.58;60.27;97140.06;4218655;28;5777;-72
2022/10/10 12:57:14;;;;;;;;;;;;;;;20.59;60.55;97136.31;4217536;28;6396;-74
2022/10/10 12:59:22;;;;;;;;;;;;;;;20.61;60.19;97135.00;4214726;28;5675;-73
2022/10/10 13:01:29;;;;;;;;;;;;;;;20.62;60.47;97133.13;4214120;28;5660;-74
2022/10/10 13:03:36;;;;;;;;;;;;;;;20.63;60.33;97130.19;4220138;28;5850;-74
2022/10/10 13:05:40;;;;;;;;;;;;;;;20.67;59.94;97135.06;4219475;28;5671;-73
2022/10/10 13:07:46;;;;;;;;;;;;;;;20.66;59.83;97131.56;4215858;28;5105;-73
2022/10/10 13:09:51;;;;;;;;;;;;;;;20.65;59.80;97129.94;4218068;28;5679;-73
2022/10/10 13:11:59;;;;;;;;;;;;;;;20.67;60.08;97133.19;4216558;28;5857;-72
2022/10/10 13:14:08;;;;;;;;;;;;;;;20.68;59.54;97120.56;4218742;28;5092;-73
2022/10/10 13:16:14;;;;;;;;;;;;;;;20.66;60.09;97125.38;4217821;28;5811;-72
2022/10/10 13:20:46;;;;;;;;;;;;;;;20.64;59.58;97126.44;4286387;27;10274;-72
2022/10/10 13:22:50;;;;;;;;;;;;;;;20.66;59.62;97115.44;4268264;27;7806;-73
2022/10/10 13:25:03;;;;;;;;;;;;;;;20.65;59.64;97113.84;4283327;27;6266;-73
2022/10/10 13:27:16;;;;;;;;;;;;;;;20.66;59.43;97115.44;4271637;27;5687;-73
2022/10/10 13:29:24;;;;;;;;;;;;;;;20.68;59.44;97117.88;4265500;27;5694;-73
2022/10/10 13:31:28;;;;;;;;;;;;;;;20.68;59.79;97110.63;4269178;27;5751;-73
2022/10/10 13:33:33;;;;;;;;;;;;;;;20.72;59.59;97114.44;4267791;27;5755;-73
2022/10/10 13:35:40;;;;;;;;;;;;;;;20.73;59.55;97113.41;4272876;27;5697;-73
2022/10/10 13:37:52;;;;;;;;;;;;;;;20.74;59.33;97115.03;4271388;27;5575;-73
2022/10/10 13:43:21;;;;;;;;;;;;;;;20.69;59.01;97104.19;4263836;27;5589;-74
2022/10/10 13:45:44;;;;;;;;;;;;;;;20.71;59.29;97096.69;4267372;27;5617;-74
2022/10/10 13:48:17;;;;;;;;;;;;;;;20.77;59.18;97108.34;4266972;27;5655;-75
2022/10/10 13:50:50;;;;;;;;;;;;;;;20.63;59.23;97086.41;4263993;27;5645;-74
2022/10/10 13:54:10;;;;;;;;;;;;;;;;;;;;;
2022/10/10 13:56:57;;;;;;;;;;;;;;;20.74;58.88;97108.84;4261262;27;5855;-73
2022/10/10 13:59:24;;;;;;;;;;;;;;;20.73;58.94;97108.03;4266494;27;5719;-72
2022/10/10 14:01:34;;;;;;;;;;;;;;;20.72;58.84;97109.06;4272523;27;5569;-72
2022/10/10 14:03:38;;;;;;;;;;;;;;;20.70;58.79;97111.19;4265809;27;5826;-71
2022/10/10 14:05:44;;;;;;;;;;;;;;;20.63;58.82;97100.66;4265515;27;5658;-71
2022/10/10 14:07:49;;;;;;;;;;;;;;;20.68;58.96;97102.59;4272647;27;5683;-71
2022/10/10 14:09:55;;;;;;;;;;;;;;;20.70;58.87;97099.66;4267873;27;5618;-72
2022/10/10 14:12:02;;;;;;;;;;;;;;;20.72;58.61;97100.19;4265718;27;5657;-70
2022/10/10 14:14:08;;;;;;;;;;;;;;;20.75;58.58;97097.84;4263302;27;5575;-72
2022/10/10 14:16:24;;;;;;;;;;;;;;;20.76;58.67;97104.03;4265296;27;5632;-71
2022/10/10 14:18:27;;;;;;;;;;;;;;;20.72;58.43;97097.50;4267678;27;5612;-71
2022/10/10 14:20:30;;;;;;;;;;;;;;;20.74;58.81;97090.84;4264257;27;5586;-71
2022/10/10 14:22:34;;;;;;;;;;;;;;;20.77;58.72;97094.91;4264343;27;5903;-71
2022/10/10 14:24:37;;;;;;;;;;;;;;;20.75;58.49;97088.97;4263557;27;5753;-72
2022/10/10 14:26:40;;;;;;;;;;;;;;;20.79;58.48;97098.16;4255236;27;5708;-71
2022/10/10 14:28:44;;;;;;;;;;;;;;;20.76;58.36;97104.84;4268205;27;5889;-71
2022/10/10 14:30:48;;;;;;;;;;;;;;;20.77;58.55;97097.59;4247466;27;5896;-71
2022/10/10 14:32:52;;;;;;;;;;;;;;;20.79;58.56;97093.59;4252561;27;6426;-71
2022/10/10 14:34:55;;;;;;;;;;;;;;;20.86;58.46;97107.66;4252940;27;5904;-71
2022/10/10 14:36:58;;;;;;;;;;;;;;;20.90;58.20;97106.06;4258072;27;5587;-73
2022/10/10 14:39:02;;;;;;;;;;;;;;;20.92;58.47;97103.94;4253316;27;5606;-71
2022/10/10 14:41:06;;;;;;;;;;;;;;;20.88;58.82;97097.47;4253608;27;5559;-71
2022/10/10 14:43:10;;;;;;;;;;;;;;;20.94;58.70;97104.50;4254755;27;5463;-70
2022/10/10 14:45:14;;;;;;;;;;;;;;;20.91;58.67;97099.63;4264899;27;5690;-71
2022/10/10 14:47:18;;;;;;;;;;;;;;;20.87;58.51;97085.09;4256164;27;5683;-71
2022/10/10 14:49:23;;;;;;;;;;;;;;;20.96;58.43;97098.09;4255854;27;5727;-70
2022/10/10 14:51:26;;;;;;;;;;;;;;;20.98;58.43;97091.38;4252484;27;5740;-72
2022/10/10 14:53:37;;;;;;;;;;;;;;;21.00;58.52;97101.88;4253637;27;5587;-72
2022/10/10 14:55:43;;;;;;;;;;;;;;;21.00;58.73;97107.25;4255268;27;5657;-73
2022/10/10 14:57:46;;;;;;;;;;;;;;;21.01;58.45;97095.44;4256605;27;5559;-71
2022/10/10 14:59:49;;;;;;;;;;;;;;;20.96;58.58;97098.91;4253455;27;5126;-70
2022/10/10 15:01:52;;;;;;;;;;;;;;;20.97;58.38;97094.34;4254053;27;5650;-72
2022/10/10 15:03:55;;;;;;;;;;;;;;;20.97;58.68;97095.16;4258648;27;5144;-71